createdAt,value
2018-10-06T00:02:29.608Z,22.70
2018-10-06T00:05:05.914Z,22.70
2018-10-06T00:07:41.189Z,22.60
2018-10-06T00:10:15.372Z,22.50
2018-10-06T00:12:51.967Z,22.20
2018-10-06T00:15:25.456Z,22.00
2018-10-06T00:18:01.639Z,21.90
2018-10-06T00:20:36.473Z,21.80
2018-10-06T00:23:09.958Z,21.70
2018-10-06T00:25:43.421Z,21.60
2018-10-06T00:28:16.843Z,21.50
2018-10-06T00:30:49.898Z,21.30
2018-10-06T00:34:54.207Z,21.30
2018-10-06T00:37:33.000Z,21.20
2018-10-06T00:40:06.117Z,21.10
2018-10-06T00:42:41.734Z,21.10
2018-10-06T00:45:15.232Z,21.10
2018-10-06T00:47:48.424Z,21.10
2018-10-06T00:50:21.627Z,21.10
2018-10-06T00:52:54.590Z,21.00
2018-10-06T00:55:29.921Z,21.10
2018-10-06T00:58:12.885Z,21.10
2018-10-06T01:00:48.687Z,21.10
2018-10-06T01:03:32.730Z,21.10
2018-10-06T01:06:07.308Z,21.10
2018-10-06T01:08:42.505Z,21.10
2018-10-06T01:11:15.681Z,21.10
2018-10-06T01:13:49.372Z,21.10
2018-10-06T01:16:22.785Z,21.10
2018-10-06T01:18:56.499Z,21.10
2018-10-06T01:21:29.664Z,21.10
2018-10-06T01:24:06.085Z,21.00
2018-10-06T01:26:40.956Z,21.00
2018-10-06T01:29:14.229Z,21.00
2018-10-06T01:31:47.907Z,21.00
2018-10-06T01:34:22.042Z,20.90
2018-10-06T01:36:55.033Z,20.90
2018-10-06T01:39:28.391Z,20.90
2018-10-06T01:42:02.067Z,21.00
2018-10-06T01:44:35.338Z,20.90
2018-10-06T01:47:08.704Z,20.80
2018-10-06T01:49:41.703Z,20.80
2018-10-06T01:52:14.673Z,20.70
2018-10-06T01:54:53.933Z,20.70
2018-10-06T01:57:26.944Z,20.70
2018-10-06T02:00:05.226Z,20.60
2018-10-06T02:02:39.109Z,20.60
2018-10-06T02:05:12.576Z,20.50
2018-10-06T02:07:45.827Z,20.60
2018-10-06T02:10:19.462Z,20.60
2018-10-06T02:12:52.714Z,20.60
2018-10-06T02:15:25.889Z,20.60
2018-10-06T02:17:59.171Z,20.60
2018-10-06T02:20:32.570Z,20.60
2018-10-06T02:23:06.046Z,20.60
2018-10-06T02:25:43.258Z,20.60
2018-10-06T02:28:17.000Z,20.60
2018-10-06T02:30:50.200Z,20.60
2018-10-06T02:33:23.594Z,20.60
2018-10-06T02:35:56.656Z,20.60
2018-10-06T02:38:30.053Z,20.50
2018-10-06T02:41:03.655Z,20.50
2018-10-06T02:43:36.945Z,20.50
2018-10-06T02:46:10.714Z,20.40
2018-10-06T02:48:44.118Z,20.40
2018-10-06T02:51:19.535Z,20.50
2018-10-06T02:53:53.833Z,20.60
2018-10-06T02:56:27.644Z,20.60
2018-10-06T02:59:04.891Z,20.60
2018-10-06T03:01:38.288Z,20.60
2018-10-06T03:04:14.733Z,20.60
2018-10-06T03:06:48.296Z,20.60
2018-10-06T03:09:21.476Z,20.60
2018-10-06T03:12:00.440Z,20.60
2018-10-06T03:14:34.118Z,20.70
2018-10-06T03:17:09.562Z,20.70
2018-10-06T03:19:42.571Z,20.70
2018-10-06T03:22:17.057Z,20.70
2018-10-06T03:24:49.927Z,20.60
2018-10-06T03:27:23.279Z,20.70
2018-10-06T03:30:01.013Z,20.80
2018-10-06T03:32:34.064Z,20.80
2018-10-06T03:35:14.266Z,20.80
2018-10-06T03:37:47.349Z,20.80
2018-10-06T03:40:20.887Z,20.70
2018-10-06T03:42:54.914Z,20.70
2018-10-06T03:45:27.999Z,20.70
2018-10-06T03:48:01.683Z,20.60
2018-10-06T03:50:36.144Z,20.60
2018-10-06T03:53:09.485Z,20.50
2018-10-06T03:55:42.561Z,20.40
2018-10-06T03:58:15.842Z,20.40
2018-10-06T04:00:52.503Z,20.30
2018-10-06T04:03:25.884Z,20.30
2018-10-06T04:05:59.702Z,20.30
2018-10-06T04:08:32.796Z,20.30
2018-10-06T04:11:06.073Z,20.20
2018-10-06T04:13:39.029Z,20.20
2018-10-06T04:16:12.187Z,20.20
2018-10-06T04:18:45.320Z,20.20
2018-10-06T04:21:18.258Z,20.20
2018-10-06T04:23:51.453Z,20.10
2018-10-06T04:26:30.428Z,20.20
2018-10-06T04:29:12.112Z,20.30
2018-10-06T04:31:45.463Z,20.20
2018-10-06T04:34:18.489Z,20.20
2018-10-06T04:36:51.712Z,20.20
2018-10-06T04:39:25.323Z,20.10
2018-10-06T04:41:58.418Z,20.10
2018-10-06T04:44:31.802Z,20.10
2018-10-06T04:47:04.782Z,20.10
2018-10-06T04:49:42.697Z,20.00
2018-10-06T04:52:16.481Z,20.00
2018-10-06T04:54:50.094Z,20.10
2018-10-06T04:57:23.234Z,20.10
2018-10-06T04:59:56.835Z,20.10
2018-10-06T05:02:31.090Z,20.00
2018-10-06T05:05:07.131Z,20.00
2018-10-06T05:07:40.057Z,20.00
2018-10-06T05:10:14.281Z,19.90
2018-10-06T05:12:47.286Z,19.90
2018-10-06T05:15:22.587Z,19.90
2018-10-06T05:17:55.984Z,19.90
2018-10-06T05:20:29.715Z,19.90
2018-10-06T05:23:03.392Z,19.80
2018-10-06T05:25:36.892Z,19.90
2018-10-06T05:28:10.263Z,20.00
2018-10-06T05:30:44.447Z,20.00
2018-10-06T05:33:17.763Z,20.00
2018-10-06T05:35:50.810Z,20.10
2018-10-06T05:38:24.013Z,20.10
2018-10-06T05:40:57.528Z,20.00
2018-10-06T05:43:30.627Z,20.00
2018-10-06T05:46:03.724Z,20.00
2018-10-06T05:48:37.015Z,19.90
2018-10-06T05:51:11.004Z,19.90
2018-10-06T05:53:49.730Z,19.80
2018-10-06T05:56:25.278Z,19.80
2018-10-06T05:58:59.871Z,19.80
2018-10-06T06:01:33.332Z,19.80
2018-10-06T06:05:35.807Z,19.90
2018-10-06T06:08:09.042Z,20.00
2018-10-06T06:10:41.988Z,19.80
2018-10-06T06:13:15.141Z,19.80
2018-10-06T06:15:48.167Z,19.90
2018-10-06T06:18:21.243Z,19.90
2018-10-06T06:20:54.371Z,19.90
2018-10-06T06:23:33.904Z,19.90
2018-10-06T06:26:06.761Z,20.00
2018-10-06T06:28:43.417Z,20.00
2018-10-06T06:31:16.568Z,20.00
2018-10-06T06:33:49.789Z,20.00
2018-10-06T06:36:22.657Z,20.00
2018-10-06T06:38:55.653Z,19.90
2018-10-06T06:41:28.795Z,20.00
2018-10-06T06:44:01.867Z,20.00
2018-10-06T06:46:36.615Z,20.00
2018-10-06T06:49:09.676Z,20.00
2018-10-06T06:51:42.694Z,20.10
2018-10-06T06:54:15.690Z,20.10
2018-10-06T06:56:49.207Z,20.10
2018-10-06T06:59:22.151Z,20.00
2018-10-06T07:01:56.274Z,20.00
2018-10-06T07:04:33.036Z,20.00
2018-10-06T07:07:06.365Z,20.00
2018-10-06T07:09:39.342Z,20.00
2018-10-06T07:12:14.074Z,20.00
2018-10-06T07:14:47.281Z,19.90
2018-10-06T07:17:20.363Z,20.00
2018-10-06T07:19:53.395Z,20.00
2018-10-06T07:22:26.335Z,19.90
2018-10-06T07:25:02.815Z,20.00
2018-10-06T07:27:36.215Z,20.00
2018-10-06T07:30:09.479Z,20.00
2018-10-06T07:32:42.609Z,19.90
2018-10-06T07:35:15.971Z,19.90
2018-10-06T07:37:53.150Z,19.90
2018-10-06T07:40:26.469Z,19.80
2018-10-06T07:43:00.150Z,19.80
2018-10-06T07:45:33.475Z,19.90
2018-10-06T07:48:09.915Z,19.80
2018-10-06T07:50:43.181Z,19.80
2018-10-06T07:53:16.195Z,19.80
2018-10-06T07:55:56.450Z,19.80
2018-10-06T07:58:29.452Z,19.80
2018-10-06T08:01:02.726Z,19.70
2018-10-06T08:03:36.542Z,19.70
2018-10-06T08:06:09.710Z,19.60
2018-10-06T08:08:42.762Z,19.60
2018-10-06T08:11:16.072Z,19.50
2018-10-06T08:13:49.337Z,19.50
2018-10-06T08:16:22.659Z,19.50
2018-10-06T08:18:55.635Z,19.50
2018-10-06T08:21:28.686Z,19.50
2018-10-06T08:24:01.901Z,19.50
2018-10-06T08:26:35.187Z,19.50
2018-10-06T08:29:11.000Z,19.50
2018-10-06T08:31:44.172Z,19.50
2018-10-06T08:34:25.175Z,19.50
2018-10-06T08:36:58.285Z,19.40
2018-10-06T08:39:31.281Z,19.40
2018-10-06T08:42:04.700Z,19.30
2018-10-06T08:44:38.569Z,19.30
2018-10-06T08:47:11.457Z,19.30
2018-10-06T08:49:44.492Z,19.10
2018-10-06T08:52:17.668Z,19.10
2018-10-06T08:54:59.902Z,19.00
2018-10-06T08:57:33.932Z,18.90
2018-10-06T09:00:06.807Z,18.80
2018-10-06T09:02:46.181Z,18.70
2018-10-06T09:05:19.013Z,18.70
2018-10-06T09:07:52.305Z,18.70
2018-10-06T09:10:25.350Z,18.60
2018-10-06T09:12:58.763Z,18.50
2018-10-06T09:15:31.978Z,18.50
2018-10-06T09:18:05.354Z,18.50
2018-10-06T09:20:38.569Z,18.50
2018-10-06T09:23:11.680Z,18.60
2018-10-06T09:25:44.779Z,18.60
2018-10-06T09:28:18.048Z,18.60
2018-10-06T09:30:57.424Z,18.70
2018-10-06T09:33:31.053Z,18.60
2018-10-06T09:36:10.952Z,18.60
2018-10-06T09:38:44.223Z,18.60
2018-10-06T09:41:17.869Z,18.60
2018-10-06T09:43:51.060Z,18.60
2018-10-06T09:46:24.186Z,18.60
2018-10-06T09:48:57.273Z,18.60
2018-10-06T09:51:30.375Z,18.60
2018-10-06T09:54:03.575Z,18.60
2018-10-06T09:56:43.599Z,18.60
2018-10-06T09:59:16.943Z,18.60
2018-10-06T10:01:54.185Z,18.60
2018-10-06T10:04:27.396Z,18.70
2018-10-06T10:07:07.105Z,18.80
2018-10-06T10:09:40.221Z,18.80
2018-10-06T10:12:20.095Z,18.80
2018-10-06T10:14:53.318Z,18.80
2018-10-06T10:17:26.405Z,18.80
2018-10-06T10:19:59.529Z,18.80
2018-10-06T10:22:32.623Z,18.80
2018-10-06T10:25:06.794Z,18.90
2018-10-06T10:27:39.820Z,18.90
2018-10-06T10:30:20.973Z,18.80
2018-10-06T10:32:54.584Z,18.80
2018-10-06T10:35:42.277Z,18.80
2018-10-06T10:38:20.323Z,18.80
2018-10-06T10:41:01.842Z,18.90
2018-10-06T10:43:40.824Z,18.80
2018-10-06T10:46:17.901Z,18.80
2018-10-06T10:48:57.787Z,18.80
2018-10-06T10:51:38.108Z,18.80
2018-10-06T10:54:22.840Z,18.80
2018-10-06T10:57:04.338Z,18.80
2018-10-06T10:59:44.517Z,18.80
2018-10-06T11:02:33.576Z,18.80
2018-10-06T11:05:12.305Z,18.80
2018-10-06T11:07:54.181Z,18.80
2018-10-06T11:10:32.396Z,18.90
2018-10-06T11:13:13.807Z,18.80
2018-10-06T11:15:52.872Z,18.80
2018-10-06T11:18:31.676Z,18.80
2018-10-06T11:21:10.296Z,18.80
2018-10-06T11:23:51.391Z,18.90
2018-10-06T11:26:37.420Z,18.90
2018-10-06T11:29:16.963Z,18.90
2018-10-06T11:31:57.319Z,18.90
2018-10-06T11:34:44.334Z,19.00
2018-10-06T11:37:24.280Z,19.00
2018-10-06T11:40:06.650Z,19.00
2018-10-06T11:42:47.682Z,19.00
2018-10-06T11:45:33.153Z,19.00
2018-10-06T11:48:13.236Z,18.90
2018-10-06T11:51:01.876Z,18.90
2018-10-06T11:53:46.802Z,18.90
2018-10-06T11:56:35.090Z,18.90
2018-10-06T11:59:15.888Z,19.00
2018-10-06T12:01:59.499Z,18.90
2018-10-06T12:04:40.209Z,19.00
2018-10-06T12:07:18.758Z,19.00
2018-10-06T12:12:51.196Z,19.00
2018-10-06T12:15:30.077Z,19.10
2018-10-06T12:18:09.053Z,19.20
2018-10-06T12:20:52.358Z,19.20
2018-10-06T12:23:35.780Z,19.20
2018-10-06T12:26:19.809Z,19.20
2018-10-06T12:29:07.096Z,19.20
2018-10-06T12:34:36.286Z,19.30
2018-10-06T12:37:15.908Z,19.40
2018-10-06T12:40:05.353Z,19.40
2018-10-06T12:42:44.338Z,19.40
2018-10-06T12:45:24.196Z,19.50
2018-10-06T12:48:07.014Z,19.50
2018-10-06T12:50:51.725Z,19.60
2018-10-06T12:53:31.586Z,19.60
2018-10-06T12:56:14.041Z,19.60
2018-10-06T12:59:00.824Z,19.60
2018-10-06T13:01:47.400Z,19.60
2018-10-06T13:04:31.619Z,19.60
2018-10-06T13:07:19.586Z,19.60
2018-10-06T13:10:00.674Z,19.60
2018-10-06T13:12:42.641Z,19.60
2018-10-06T13:15:25.379Z,19.60
2018-10-06T13:18:05.601Z,19.60
2018-10-06T13:20:45.067Z,19.60
2018-10-06T13:23:22.774Z,19.70
2018-10-06T13:28:48.171Z,19.90
2018-10-06T13:31:32.940Z,20.00
2018-10-06T13:34:20.667Z,20.10
2018-10-06T13:37:01.828Z,20.20
2018-10-06T13:39:42.714Z,20.30
2018-10-06T13:42:20.452Z,20.40
2018-10-06T13:45:03.926Z,20.40
2018-10-06T13:47:46.724Z,20.50
2018-10-06T13:50:26.809Z,20.60
2018-10-06T13:53:07.936Z,20.70
2018-10-06T13:55:54.024Z,20.80
2018-10-06T13:58:38.703Z,20.90
2018-10-06T14:01:17.597Z,21.00
2018-10-06T14:03:55.198Z,21.00
2018-10-06T14:06:37.790Z,21.10
2018-10-06T14:09:19.029Z,21.20
2018-10-06T14:11:58.367Z,21.20
2018-10-06T14:14:48.757Z,21.30
2018-10-06T14:17:29.604Z,21.30
2018-10-06T14:20:12.421Z,21.40
2018-10-06T14:22:51.304Z,21.50
2018-10-06T14:25:35.639Z,21.50
2018-10-06T14:28:16.544Z,21.50
2018-10-06T14:31:01.400Z,21.50
2018-10-06T14:33:39.010Z,21.50
2018-10-06T14:36:17.854Z,21.50
2018-10-06T14:38:57.620Z,21.60
2018-10-06T14:41:41.070Z,21.60
2018-10-06T14:44:26.464Z,21.60
2018-10-06T14:47:08.639Z,21.60
2018-10-06T14:49:48.058Z,21.60
2018-10-06T14:52:28.315Z,21.80
2018-10-06T14:55:05.519Z,21.90
2018-10-06T14:57:47.201Z,21.80
2018-10-06T15:00:29.604Z,21.80
2018-10-06T15:03:10.264Z,21.70
2018-10-06T15:05:51.215Z,21.80
2018-10-06T15:08:29.391Z,21.70
2018-10-06T15:11:13.139Z,21.80
2018-10-06T15:13:53.285Z,22.00
2018-10-06T15:19:16.550Z,22.20
2018-10-06T15:21:57.737Z,22.20
2018-10-06T15:24:36.141Z,22.20
2018-10-06T15:27:21.127Z,22.30
2018-10-06T15:30:04.808Z,22.40
2018-10-06T15:32:50.528Z,22.60
2018-10-06T15:35:30.878Z,22.80
2018-10-06T15:38:10.010Z,22.80
2018-10-06T15:40:53.338Z,23.00
2018-10-06T15:43:34.604Z,23.10
2018-10-06T15:46:12.749Z,23.10
2018-10-06T15:48:52.085Z,23.10
2018-10-06T15:51:35.774Z,23.10
2018-10-06T15:54:13.841Z,23.20
2018-10-06T15:56:57.873Z,23.30
2018-10-06T15:59:40.175Z,23.30
2018-10-06T16:02:23.171Z,23.50
2018-10-06T16:05:05.901Z,23.40
2018-10-06T16:07:45.197Z,23.40
2018-10-06T16:10:24.264Z,23.50
2018-10-06T16:13:05.807Z,23.60
2018-10-06T16:15:45.767Z,23.50
2018-10-06T16:19:54.218Z,23.50
2018-10-06T16:22:33.171Z,23.60
2018-10-06T16:25:06.563Z,23.70
2018-10-06T16:27:46.362Z,23.70
2018-10-06T16:30:19.263Z,23.70
2018-10-06T16:32:52.830Z,23.80
2018-10-06T16:35:33.696Z,23.60
2018-10-06T16:38:07.085Z,23.40
2018-10-06T16:40:40.341Z,23.40
2018-10-06T16:43:13.559Z,23.40
2018-10-06T16:45:46.755Z,23.60
2018-10-06T16:48:20.193Z,23.80
2018-10-06T16:50:53.469Z,23.90
2018-10-06T16:53:26.752Z,24.10
2018-10-06T16:56:00.209Z,24.20
2018-10-06T16:58:34.448Z,24.30
2018-10-06T17:01:07.943Z,24.40
2018-10-06T17:03:41.415Z,24.50
2018-10-06T17:06:14.553Z,24.60
2018-10-06T17:08:48.444Z,24.50
2018-10-06T17:11:22.523Z,24.40
2018-10-06T17:13:56.895Z,24.40
2018-10-06T17:16:29.879Z,24.40
2018-10-06T17:19:03.923Z,24.30
2018-10-06T17:21:37.319Z,24.10
2018-10-06T17:24:14.968Z,23.90
2018-10-06T17:26:48.093Z,23.90
2018-10-06T17:29:21.541Z,23.90
2018-10-06T17:31:54.831Z,23.70
2018-10-06T17:34:28.450Z,23.80
2018-10-06T17:37:02.311Z,23.70
2018-10-06T17:39:38.969Z,23.70
2018-10-06T17:42:12.295Z,23.70
2018-10-06T17:44:45.678Z,23.80
2018-10-06T17:47:19.224Z,23.80
2018-10-06T17:49:52.504Z,24.10
2018-10-06T17:52:25.721Z,24.20
2018-10-06T17:55:00.725Z,24.10
2018-10-06T17:57:33.760Z,24.00
2018-10-06T18:00:07.849Z,24.00
2018-10-06T18:02:41.075Z,24.10
2018-10-06T18:05:14.679Z,24.30
2018-10-06T18:07:47.939Z,24.50
2018-10-06T18:10:21.154Z,24.40
2018-10-06T18:13:02.999Z,24.30
2018-10-06T18:15:36.526Z,24.30
2018-10-06T18:18:09.863Z,24.30
2018-10-06T18:20:43.318Z,24.20
2018-10-06T18:23:16.755Z,24.20
2018-10-06T18:25:50.110Z,24.20
2018-10-06T18:28:23.090Z,24.20
2018-10-06T18:30:56.502Z,24.30
2018-10-06T18:33:33.384Z,24.30
2018-10-06T18:36:07.984Z,24.50
2018-10-06T18:38:42.004Z,24.60
2018-10-06T18:41:15.761Z,24.90
2018-10-06T18:43:49.049Z,25.30
2018-10-06T18:46:22.768Z,25.60
2018-10-06T18:48:55.949Z,25.70
2018-10-06T18:51:34.628Z,25.90
2018-10-06T18:54:07.576Z,26.00
2018-10-06T18:56:40.974Z,26.00
2018-10-06T18:59:15.244Z,25.90
2018-10-06T19:01:48.525Z,25.80
2018-10-06T19:04:21.632Z,25.70
2018-10-06T19:06:54.877Z,25.60
2018-10-06T19:09:39.277Z,25.40
2018-10-06T19:12:18.566Z,25.20
2018-10-06T19:14:51.586Z,24.90
2018-10-06T19:17:24.642Z,24.60
2018-10-06T19:19:57.492Z,24.40
2018-10-06T19:22:30.953Z,24.40
2018-10-06T19:25:04.074Z,24.40
2018-10-06T19:27:37.477Z,24.30
2018-10-06T19:30:11.129Z,24.30
2018-10-06T19:32:44.606Z,24.10
2018-10-06T19:35:18.316Z,24.00
2018-10-06T19:37:51.583Z,23.70
2018-10-06T19:40:25.298Z,23.70
2018-10-06T19:42:58.642Z,23.60
2018-10-06T19:45:31.796Z,23.50
2018-10-06T19:48:05.157Z,23.20
2018-10-06T19:50:38.360Z,23.20
2018-10-06T19:53:11.724Z,23.10
2018-10-06T19:55:44.664Z,23.10
2018-10-06T19:58:18.651Z,23.00
2018-10-06T20:00:57.576Z,23.10
2018-10-06T20:03:30.736Z,23.10
2018-10-06T20:06:03.722Z,23.00
2018-10-06T20:08:39.041Z,22.80
2018-10-06T20:11:12.217Z,22.80
2018-10-06T20:13:45.639Z,22.80
2018-10-06T20:16:19.266Z,22.90
2018-10-06T20:18:52.556Z,23.10
2018-10-06T20:21:25.595Z,23.20
2018-10-06T20:23:58.956Z,23.30
2018-10-06T20:26:32.606Z,23.30
2018-10-06T20:29:10.167Z,23.40
2018-10-06T20:31:49.101Z,23.50
2018-10-06T20:34:22.616Z,23.70
2018-10-06T20:36:55.870Z,23.80
2018-10-06T20:39:32.900Z,23.90
2018-10-06T20:42:06.520Z,24.00
2018-10-06T20:44:39.773Z,24.00
2018-10-06T20:47:19.453Z,24.10
2018-10-06T20:49:54.390Z,24.10
2018-10-06T20:52:32.506Z,24.10
2018-10-06T20:55:06.116Z,24.00
2018-10-06T20:57:40.109Z,24.00
2018-10-06T21:00:14.056Z,24.10
2018-10-06T21:02:47.033Z,24.10
2018-10-06T21:05:20.643Z,24.10
2018-10-06T21:07:54.171Z,24.00
2018-10-06T21:10:27.464Z,24.00
2018-10-06T21:13:02.981Z,23.90
2018-10-06T21:15:36.496Z,23.90
2018-10-06T21:18:09.938Z,23.80
2018-10-06T21:20:43.376Z,23.80
2018-10-06T21:23:16.540Z,23.70
2018-10-06T21:25:50.237Z,23.60
2018-10-06T21:28:23.956Z,23.50
2018-10-06T21:30:57.491Z,23.50
2018-10-06T21:33:31.059Z,23.40
2018-10-06T21:36:04.241Z,23.20
2018-10-06T21:38:43.503Z,23.10
2018-10-06T21:41:16.770Z,22.80
2018-10-06T21:43:50.018Z,22.80
2018-10-06T21:46:23.711Z,22.70
2018-10-06T21:48:57.052Z,22.70
2018-10-06T21:51:30.116Z,22.60
2018-10-06T21:54:03.471Z,22.60
2018-10-06T21:56:37.574Z,22.50
2018-10-06T21:59:11.204Z,22.50
2018-10-06T22:01:50.407Z,22.50
2018-10-06T22:04:23.485Z,22.60
2018-10-06T22:06:56.724Z,22.70
2018-10-06T22:09:29.891Z,22.70
2018-10-06T22:12:03.590Z,22.80
2018-10-06T22:14:36.894Z,22.80
2018-10-06T22:17:10.282Z,22.70
2018-10-06T22:19:43.497Z,22.90
2018-10-06T22:22:16.890Z,22.90
2018-10-06T22:24:51.162Z,22.90
2018-10-06T22:27:28.789Z,22.90
2018-10-06T22:30:02.227Z,22.80
2018-10-06T22:32:35.952Z,22.80
2018-10-06T22:35:09.358Z,22.70
2018-10-06T22:37:42.710Z,22.60
2018-10-06T22:40:16.130Z,22.60
2018-10-06T22:42:49.614Z,22.60
2018-10-06T22:45:22.666Z,22.50
2018-10-06T22:47:56.171Z,22.40
2018-10-06T22:50:29.005Z,22.40
2018-10-06T22:53:03.422Z,22.30
2018-10-06T22:55:36.806Z,22.20
2018-10-06T22:58:17.918Z,22.10
2018-10-06T23:00:51.117Z,22.00
2018-10-06T23:03:24.532Z,22.00
2018-10-06T23:05:57.705Z,21.90
2018-10-06T23:08:30.846Z,21.80
2018-10-06T23:11:04.069Z,21.80
2018-10-06T23:13:37.220Z,21.80
2018-10-06T23:16:11.105Z,21.80
2018-10-06T23:18:44.292Z,21.90
2018-10-06T23:21:17.501Z,21.90
2018-10-06T23:23:50.497Z,21.90
2018-10-06T23:26:23.568Z,22.00
2018-10-06T23:29:02.922Z,22.00
2018-10-06T23:31:36.075Z,21.90
2018-10-06T23:34:09.405Z,21.80
2018-10-06T23:36:42.668Z,21.80
2018-10-06T23:39:16.222Z,21.70
2018-10-06T23:41:49.392Z,21.80
2018-10-06T23:44:22.833Z,21.70
2018-10-06T23:46:55.855Z,21.70
2018-10-06T23:49:29.185Z,21.70
2018-10-06T23:52:02.107Z,21.60
2018-10-06T23:54:41.519Z,21.50
2018-10-06T23:57:14.383Z,21.50
2018-10-06T23:59:48.170Z,21.40
